createdAt,value
2022-10-08T00:01:20.331Z,99.90
2022-10-08T00:06:14.689Z,99.90
2022-10-08T00:11:09.893Z,99.90
2022-10-08T00:16:04.347Z,99.90
2022-10-08T00:21:06.414Z,99.90
2022-10-08T00:26:03.630Z,99.90
2022-10-08T00:31:01.379Z,99.90
2022-10-08T00:36:06.456Z,99.90
2022-10-08T00:41:02.347Z,99.90
2022-10-08T00:45:54.853Z,99.90
2022-10-08T00:50:48.041Z,99.90
2022-10-08T00:55:43.855Z,99.90
2022-10-08T01:00:36.504Z,99.90
2022-10-08T01:05:39.159Z,99.90
2022-10-08T01:11:03.206Z,99.90
2022-10-08T01:16:19.286Z,99.90
2022-10-08T01:21:25.092Z,99.90
2022-10-08T01:26:51.755Z,99.90
2022-10-08T01:32:41.003Z,99.90
2022-10-08T01:38:49.073Z,99.90
2022-10-08T01:44:56.832Z,99.90
2022-10-08T01:51:04.670Z,99.90
2022-10-08T01:57:12.391Z,99.90
2022-10-08T02:08:45.890Z,99.90
2022-10-08T02:14:53.539Z,99.90
2022-10-08T02:21:01.815Z,99.90
2022-10-08T02:27:10.407Z,99.90
2022-10-08T02:33:18.306Z,99.90
2022-10-08T02:39:26.374Z,99.90
2022-10-08T02:45:33.995Z,99.90
2022-10-08T02:51:41.644Z,99.90
2022-10-08T02:57:49.632Z,99.90
2022-10-08T03:03:58.602Z,99.90
2022-10-08T03:10:06.043Z,99.90
2022-10-08T03:16:13.404Z,99.90
2022-10-08T03:22:02.745Z,99.90
2022-10-08T03:28:10.990Z,99.90
2022-10-08T03:33:21.951Z,99.90
2022-10-08T03:38:18.840Z,99.90
2022-10-08T03:43:11.224Z,99.90
2022-10-08T03:48:03.546Z,99.90
2022-10-08T03:52:56.054Z,99.90
2022-10-08T03:57:48.971Z,99.90
2022-10-08T04:02:41.683Z,99.90
2022-10-08T04:07:34.161Z,99.90
2022-10-08T04:12:26.663Z,99.90
2022-10-08T04:17:19.128Z,99.90
2022-10-08T04:22:11.472Z,99.90
2022-10-08T04:27:36.433Z,99.90
2022-10-08T04:32:28.828Z,99.90
2022-10-08T04:37:22.631Z,99.90
2022-10-08T04:42:47.406Z,99.90
2022-10-08T04:47:40.014Z,99.90
2022-10-08T04:52:32.583Z,99.90
2022-10-08T04:57:25.025Z,99.90
2022-10-08T05:02:17.487Z,99.90
2022-10-08T05:07:10.239Z,99.90
2022-10-08T05:12:03.386Z,99.90
2022-10-08T05:16:55.936Z,99.90
2022-10-08T05:21:48.688Z,99.90
2022-10-08T05:26:58.899Z,99.90
2022-10-08T05:43:05.230Z,99.90
2022-10-08T05:47:57.668Z,99.90
2022-10-08T05:52:50.466Z,99.90
2022-10-08T05:57:43.570Z,99.90
2022-10-08T06:02:36.415Z,99.90
2022-10-08T06:07:29.419Z,99.90
2022-10-08T06:12:21.887Z,99.90
2022-10-08T06:17:14.790Z,99.90
2022-10-08T06:22:08.315Z,99.90
2022-10-08T06:27:01.674Z,99.90
2022-10-08T06:31:55.823Z,99.90
2022-10-08T06:36:48.596Z,99.90
2022-10-08T06:41:42.230Z,99.90
2022-10-08T06:46:41.451Z,99.90
2022-10-08T06:51:37.934Z,99.90
2022-10-08T06:56:30.883Z,99.90
2022-10-08T07:01:31.962Z,99.90
2022-10-08T07:06:28.637Z,99.90
2022-10-08T07:11:26.538Z,99.90
2022-10-08T07:16:33.900Z,99.90
2022-10-08T07:32:08.559Z,99.90
2022-10-08T07:37:01.109Z,99.90
2022-10-08T07:41:54.257Z,99.90
2022-10-08T07:46:50.453Z,99.90
2022-10-08T07:51:43.144Z,99.90
2022-10-08T07:56:41.086Z,99.90
2022-10-08T08:01:42.664Z,99.90
2022-10-08T08:06:41.028Z,99.90
2022-10-08T08:11:33.817Z,99.90
2022-10-08T08:16:29.352Z,99.90
2022-10-08T08:21:33.978Z,99.90
2022-10-08T08:27:23.776Z,99.90
2022-10-08T08:33:31.682Z,99.90
2022-10-08T08:40:14.910Z,99.90
2022-10-08T08:59:54.486Z,99.90
2022-10-08T09:06:07.263Z,99.90
2022-10-08T09:12:26.185Z,99.90
2022-10-08T09:18:34.222Z,99.90
2022-10-08T09:24:41.709Z,99.90
2022-10-08T09:30:50.028Z,99.90
2022-10-08T09:37:00.628Z,99.90
2022-10-08T09:43:09.007Z,99.00
2022-10-08T09:49:16.847Z,98.10
2022-10-08T09:55:23.847Z,94.80
2022-10-08T10:01:32.429Z,93.00
2022-10-08T10:07:42.129Z,90.90
2022-10-08T10:13:52.605Z,91.70
2022-10-08T10:20:03.816Z,94.30
2022-10-08T10:25:50.192Z,96.50
2022-10-08T10:30:58.964Z,96.60
2022-10-08T10:35:56.378Z,98.00
2022-10-08T10:41:03.730Z,97.60
2022-10-08T10:46:12.570Z,96.70
2022-10-08T10:51:23.640Z,94.50
2022-10-08T10:56:22.396Z,93.10
2022-10-08T11:01:59.191Z,93.00
2022-10-08T11:07:18.879Z,90.70
2022-10-08T11:12:37.094Z,90.40
2022-10-08T11:23:10.997Z,91.20
2022-10-08T11:28:23.209Z,91.60
2022-10-08T11:33:18.978Z,90.10
2022-10-08T11:38:30.414Z,90.40
2022-10-08T11:44:08.385Z,90.80
2022-10-08T11:49:06.436Z,91.90
2022-10-08T11:54:07.328Z,91.60
2022-10-08T11:59:17.460Z,92.30
2022-10-08T12:04:22.201Z,92.30
2022-10-08T12:09:25.729Z,92.70
2022-10-08T12:14:18.516Z,93.00
2022-10-08T12:19:35.012Z,94.40
2022-10-08T12:24:40.040Z,94.30
2022-10-08T12:30:00.423Z,95.20
2022-10-08T12:34:55.376Z,96.10
2022-10-08T12:39:51.128Z,96.30
2022-10-08T12:44:58.082Z,96.20
2022-10-08T12:50:00.547Z,95.50
2022-10-08T12:54:58.611Z,96.40
2022-10-08T12:59:55.478Z,97.30
2022-10-08T13:04:51.075Z,97.40
2022-10-08T13:09:58.776Z,97.80
2022-10-08T13:15:08.630Z,98.20
2022-10-08T13:20:10.921Z,98.50
2022-10-08T13:25:04.788Z,98.00
2022-10-08T13:29:59.312Z,97.60
2022-10-08T13:34:59.200Z,98.10
2022-10-08T13:40:01.475Z,98.80
2022-10-08T13:44:54.790Z,99.10
2022-10-08T13:50:02.474Z,99.50
2022-10-08T13:55:05.381Z,99.90
2022-10-08T14:00:00.970Z,99.90
2022-10-08T14:04:54.444Z,99.90
2022-10-08T14:09:51.710Z,99.90
2022-10-08T14:14:47.148Z,99.90
2022-10-08T14:19:47.352Z,99.90
2022-10-08T14:24:40.043Z,99.90
2022-10-08T14:29:33.533Z,99.90
2022-10-08T14:34:29.100Z,99.90
2022-10-08T14:39:26.466Z,99.90
2022-10-08T14:44:25.435Z,99.90
2022-10-08T14:49:20.730Z,99.90
2022-10-08T14:54:24.082Z,99.90
2022-10-08T15:33:11.123Z,99.90
2022-10-08T15:38:06.314Z,99.90
2022-10-08T15:43:00.763Z,99.90
2022-10-08T15:47:57.014Z,99.90
2022-10-08T15:52:49.365Z,99.90
2022-10-08T15:57:45.815Z,99.90
2022-10-08T16:02:38.177Z,99.90
2022-10-08T16:07:30.352Z,99.90
2022-10-08T16:12:27.812Z,99.90
2022-10-08T16:17:19.989Z,99.90
2022-10-08T16:23:10.537Z,99.90
2022-10-08T16:29:17.747Z,99.90
2022-10-08T16:35:24.664Z,99.90
2022-10-08T16:41:36.691Z,99.90
2022-10-08T16:47:47.177Z,99.90
2022-10-08T16:53:54.150Z,99.90
2022-10-08T17:00:01.782Z,99.90
2022-10-08T17:06:08.934Z,99.90
2022-10-08T17:12:19.669Z,99.90
2022-10-08T17:18:30.209Z,99.90
2022-10-08T17:24:42.472Z,99.90
2022-10-08T17:30:50.822Z,99.90
2022-10-08T17:36:59.433Z,99.90
2022-10-08T17:43:06.350Z,99.90
2022-10-08T17:49:14.596Z,99.90
2022-10-08T17:55:21.642Z,99.90
2022-10-08T18:01:31.030Z,99.90
2022-10-08T18:07:39.643Z,99.90
2022-10-08T18:13:46.496Z,99.90
2022-10-08T18:19:53.749Z,99.90
2022-10-08T18:25:05.362Z,99.90
2022-10-08T18:29:57.806Z,99.90
2022-10-08T18:34:52.882Z,99.90
2022-10-08T18:39:47.733Z,99.90
2022-10-08T18:44:39.856Z,99.90
2022-10-08T18:49:33.638Z,99.90
2022-10-08T18:54:26.004Z,99.90
2022-10-08T18:59:18.814Z,99.90
2022-10-08T19:04:22.757Z,99.90
2022-10-08T19:09:15.509Z,99.90
2022-10-08T19:14:10.203Z,99.90
2022-10-08T19:19:04.707Z,99.90
2022-10-08T19:24:00.981Z,99.90
2022-10-08T19:28:54.730Z,99.90
2022-10-08T19:33:55.008Z,99.90
2022-10-08T19:38:58.868Z,99.90
2022-10-08T19:43:51.979Z,99.90
2022-10-08T19:48:47.383Z,99.90
2022-10-08T19:53:40.738Z,99.90
2022-10-08T19:58:33.139Z,99.90
2022-10-08T20:03:25.278Z,99.90
2022-10-08T20:08:17.550Z,99.90
2022-10-08T20:13:09.886Z,99.90
2022-10-08T20:18:05.013Z,99.90
2022-10-08T20:22:57.546Z,99.90
2022-10-08T20:27:53.764Z,99.90
2022-10-08T20:32:46.134Z,99.90
2022-10-08T20:37:38.725Z,99.90
2022-10-08T20:42:32.283Z,99.90
2022-10-08T20:47:25.715Z,99.90
2022-10-08T20:59:35.096Z,99.90
2022-10-08T21:04:27.355Z,99.90
2022-10-08T21:09:22.665Z,99.90
2022-10-08T21:14:20.486Z,99.90
2022-10-08T21:19:24.441Z,99.90
2022-10-08T21:24:19.657Z,99.90
2022-10-08T21:29:14.375Z,99.90
2022-10-08T21:34:07.429Z,99.90
2022-10-08T21:39:01.395Z,99.90
2022-10-08T21:43:56.899Z,99.90
2022-10-08T21:48:58.051Z,99.90
2022-10-08T21:53:56.867Z,99.90
2022-10-08T21:59:00.267Z,99.90
2022-10-08T22:04:00.956Z,99.90
2022-10-08T22:08:53.613Z,99.90
2022-10-08T22:13:46.175Z,99.90
2022-10-08T22:18:41.161Z,99.90
2022-10-08T22:23:34.720Z,99.90
2022-10-08T22:28:31.097Z,99.90
2022-10-08T22:33:23.425Z,99.90
2022-10-08T22:38:15.669Z,99.90
2022-10-08T22:43:07.861Z,99.90
2022-10-08T22:48:00.125Z,99.90
2022-10-08T22:52:52.347Z,99.90
2022-10-08T22:57:45.896Z,99.90
2022-10-08T23:02:38.126Z,99.90
2022-10-08T23:07:30.321Z,99.90
2022-10-08T23:12:22.678Z,99.90
2022-10-08T23:17:14.979Z,99.90
2022-10-08T23:22:07.135Z,99.90
2022-10-08T23:27:00.623Z,99.90
2022-10-08T23:31:53.586Z,99.90
2022-10-08T23:36:45.954Z,99.90
2022-10-08T23:41:38.169Z,99.90
2022-10-08T23:46:31.832Z,99.90
2022-10-08T23:51:25.066Z,99.90
2022-10-08T23:56:17.479Z,99.90
